createdAt,value
2019-05-22T00:01:18.217Z,53.63
2019-05-22T00:03:55.098Z,47.75
2019-05-22T00:06:28.174Z,49.35
2019-05-22T00:09:01.284Z,50.98
2019-05-22T00:11:34.610Z,47.90
2019-05-22T00:14:08.034Z,52.20
2019-05-22T00:19:08.990Z,48.58
2019-05-22T00:21:40.415Z,47.48
2019-05-22T00:24:12.177Z,47.62
2019-05-22T00:26:45.240Z,50.75
2019-05-22T00:29:19.850Z,47.15
2019-05-22T00:31:50.979Z,48.30
2019-05-22T00:34:22.330Z,46.85
2019-05-22T00:36:52.757Z,45.33
2019-05-22T00:39:28.082Z,48.45
2019-05-22T00:42:01.710Z,48.87
2019-05-22T00:44:34.998Z,47.30
2019-05-22T00:47:10.341Z,45.98
2019-05-22T00:49:43.111Z,45.63
2019-05-22T00:52:24.538Z,43.02
2019-05-22T00:55:02.115Z,44.95
2019-05-22T00:57:46.178Z,43.63
2019-05-22T01:00:24.690Z,46.18
2019-05-22T01:03:00.317Z,47.85
2019-05-22T01:05:36.409Z,48.50
2019-05-22T01:08:12.400Z,52.15
2019-05-22T01:10:50.402Z,54.40
2019-05-22T01:13:30.557Z,49.93
2019-05-22T01:16:02.890Z,51.02
2019-05-22T01:18:37.354Z,49.45
2019-05-22T01:21:24.128Z,46.85
2019-05-22T01:23:59.335Z,43.55
2019-05-22T01:26:33.482Z,48.58
2019-05-22T01:29:09.075Z,45.33
2019-05-22T01:31:42.843Z,47.65
2019-05-22T01:34:16.564Z,45.75
2019-05-22T01:36:51.607Z,47.35
2019-05-22T01:39:44.859Z,47.93
2019-05-22T01:42:17.997Z,46.80
2019-05-22T01:45:00.706Z,46.83
2019-05-22T01:47:33.144Z,47.15
2019-05-22T01:50:06.548Z,42.62
2019-05-22T01:52:47.077Z,43.65
2019-05-22T01:55:22.123Z,43.83
2019-05-22T01:57:53.675Z,40.98
2019-05-22T02:00:26.439Z,39.70
2019-05-22T02:02:57.698Z,40.05
2019-05-22T02:05:30.056Z,40.90
2019-05-22T02:08:10.755Z,42.43
2019-05-22T02:10:43.642Z,44.60
2019-05-22T02:13:19.434Z,41.08
2019-05-22T02:15:51.434Z,44.73
2019-05-22T02:18:25.138Z,42.88
2019-05-22T02:20:56.919Z,41.95
2019-05-22T02:23:29.494Z,46.63
2019-05-22T02:26:00.139Z,44.73
2019-05-22T02:28:33.823Z,47.05
2019-05-22T02:31:09.542Z,43.40
2019-05-22T02:33:57.772Z,45.05
2019-05-22T02:36:31.552Z,48.73
2019-05-22T02:39:08.688Z,46.33
2019-05-22T02:41:46.207Z,45.95
2019-05-22T02:44:19.499Z,46.53
2019-05-22T02:46:51.348Z,48.25
2019-05-22T02:49:23.926Z,43.55
2019-05-22T02:51:57.230Z,44.20
2019-05-22T02:54:32.575Z,53.13
2019-05-22T02:57:05.494Z,48.80
2019-05-22T02:59:38.034Z,57.35
2019-05-22T03:02:09.845Z,55.03
2019-05-22T03:04:57.765Z,51.88
2019-05-22T03:07:31.879Z,50.60
2019-05-22T03:10:05.828Z,47.83
2019-05-22T03:12:39.108Z,49.42
2019-05-22T03:15:17.218Z,49.75
2019-05-22T03:17:51.368Z,50.33
2019-05-22T03:20:23.546Z,52.13
2019-05-22T03:23:14.596Z,50.98
2019-05-22T03:25:47.754Z,49.25
2019-05-22T03:28:19.264Z,54.35
2019-05-22T03:30:50.952Z,58.92
2019-05-22T03:33:22.083Z,58.68
2019-05-22T03:36:00.872Z,56.50
2019-05-22T03:38:35.323Z,54.83
2019-05-22T03:41:08.969Z,60.65
2019-05-22T03:43:42.761Z,54.48
2019-05-22T03:46:37.492Z,56.40
2019-05-22T03:49:28.004Z,57.33
2019-05-22T03:51:45.581Z,54.40
2019-05-22T03:54:19.409Z,56.13
2019-05-22T03:59:22.706Z,55.67
2019-05-22T04:01:57.038Z,54.60
2019-05-22T04:04:39.439Z,59.90
2019-05-22T04:07:16.313Z,56.35
2019-05-22T04:09:46.378Z,57.25
2019-05-22T04:12:17.012Z,56.30
2019-05-22T04:14:49.832Z,59.30
2019-05-22T04:17:20.241Z,57.13
2019-05-22T04:19:51.761Z,55.03
2019-05-22T04:22:22.888Z,55.70
2019-05-22T04:24:54.619Z,61.77
2019-05-22T04:27:36.313Z,56.28
2019-05-22T04:30:12.467Z,57.27
2019-05-22T04:32:44.386Z,55.12
2019-05-22T04:35:19.127Z,57.83
2019-05-22T04:37:49.898Z,56.88
2019-05-22T04:40:25.852Z,54.45
2019-05-22T04:42:59.416Z,55.60
2019-05-22T04:45:30.393Z,54.67
2019-05-22T04:48:03.898Z,56.23
2019-05-22T04:50:34.298Z,53.30
2019-05-22T04:53:05.178Z,53.80
2019-05-22T04:55:35.658Z,57.78
2019-05-22T04:58:07.420Z,59.42
2019-05-22T05:00:38.176Z,61.23
2019-05-22T05:03:09.088Z,57.48
2019-05-22T05:05:50.675Z,57.70
2019-05-22T05:08:21.010Z,63.33
2019-05-22T05:10:52.667Z,58.23
2019-05-22T05:13:23.214Z,58.35
2019-05-22T05:15:53.302Z,58.90
2019-05-22T05:18:23.417Z,61.13
2019-05-22T05:20:53.517Z,62.35
2019-05-22T05:23:23.942Z,61.60
2019-05-22T05:25:53.979Z,64.82
2019-05-22T05:28:24.188Z,62.65
2019-05-22T05:30:54.301Z,64.55
2019-05-22T05:33:25.290Z,58.17
2019-05-22T05:35:57.884Z,63.40
2019-05-22T05:38:34.523Z,63.48
2019-05-22T05:41:05.130Z,60.63
2019-05-22T05:43:36.197Z,60.67
2019-05-22T05:46:06.736Z,57.33
2019-05-22T05:48:36.874Z,64.82
2019-05-22T05:51:11.327Z,62.15
2019-05-22T05:54:03.921Z,60.73
2019-05-22T05:56:35.661Z,61.15
2019-05-22T05:59:08.299Z,62.45
2019-05-22T06:01:40.452Z,63.33
2019-05-22T06:04:12.046Z,59.10
2019-05-22T06:06:45.153Z,58.85
2019-05-22T06:09:23.058Z,56.60
2019-05-22T06:11:53.956Z,63.23
2019-05-22T06:14:33.487Z,59.23
2019-05-22T06:17:26.542Z,55.83
2019-05-22T06:19:59.566Z,61.60
2019-05-22T06:22:29.458Z,64.12
2019-05-22T06:25:03.464Z,57.03
2019-05-22T06:27:43.314Z,53.50
2019-05-22T06:30:17.515Z,57.03
2019-05-22T06:33:13.529Z,57.15
2019-05-22T06:35:46.083Z,51.88
2019-05-22T06:38:28.030Z,61.00
2019-05-22T06:40:58.622Z,56.42
2019-05-22T06:43:32.267Z,59.58
2019-05-22T06:46:02.814Z,59.48
2019-05-22T06:48:33.107Z,57.55
2019-05-22T06:51:18.305Z,56.05
2019-05-22T06:53:35.414Z,52.65
2019-05-22T06:56:05.567Z,60.73
2019-05-22T06:58:35.848Z,61.08
2019-05-22T07:01:06.176Z,66.47
2019-05-22T07:03:36.351Z,60.60
2019-05-22T07:06:06.469Z,63.35
2019-05-22T07:08:37.345Z,62.30
2019-05-22T07:11:08.538Z,60.48
2019-05-22T07:13:39.115Z,57.03
2019-05-22T07:16:09.811Z,62.10
2019-05-22T07:18:41.475Z,64.92
2019-05-22T07:21:11.625Z,59.42
2019-05-22T07:23:42.016Z,58.05
2019-05-22T07:26:12.450Z,66.75
2019-05-22T07:28:42.931Z,61.58
2019-05-22T07:31:13.047Z,59.98
2019-05-22T07:33:43.175Z,63.80
2019-05-22T07:36:16.717Z,59.33
2019-05-22T07:38:46.419Z,61.92
2019-05-22T07:41:16.573Z,58.33
2019-05-22T07:43:46.692Z,57.38
2019-05-22T07:46:16.781Z,52.43
2019-05-22T07:48:47.001Z,54.20
2019-05-22T07:51:18.581Z,52.40
2019-05-22T07:57:30.272Z,59.30
2019-05-22T08:00:00.669Z,54.27
2019-05-22T08:02:36.857Z,51.63
2019-05-22T08:05:07.333Z,56.08
2019-05-22T08:07:38.677Z,55.75
2019-05-22T08:10:13.423Z,53.63
2019-05-22T08:12:45.267Z,49.30
2019-05-22T08:15:17.544Z,47.50
2019-05-22T08:17:47.947Z,45.90
2019-05-22T08:20:18.115Z,51.23
2019-05-22T08:22:49.971Z,57.93
2019-05-22T08:25:20.185Z,50.60
2019-05-22T08:27:51.117Z,50.00
2019-05-22T08:30:21.904Z,49.63
2019-05-22T08:32:53.280Z,46.77
2019-05-22T08:35:23.931Z,45.20
2019-05-22T08:37:56.239Z,48.80
2019-05-22T08:40:27.160Z,53.42
2019-05-22T08:42:57.721Z,48.38
2019-05-22T08:45:28.784Z,47.75
2019-05-22T08:47:59.265Z,44.63
2019-05-22T08:50:31.105Z,46.02
2019-05-22T08:53:02.433Z,39.88
2019-05-22T08:55:35.274Z,45.95
2019-05-22T08:58:07.754Z,38.63
2019-05-22T09:00:38.165Z,34.90
2019-05-22T09:03:08.262Z,17.67
2019-05-22T09:05:38.495Z,15.55
2019-05-22T09:08:08.587Z,12.60
2019-05-22T09:10:38.593Z,15.68
2019-05-22T09:13:08.544Z,12.23
2019-05-22T09:15:40.298Z,8.15
2019-05-22T09:18:11.315Z,13.85
2019-05-22T09:20:49.275Z,10.25
2019-05-22T09:23:14.077Z,16.75
2019-05-22T09:25:44.244Z,12.05
2019-05-22T09:28:14.823Z,13.48
2019-05-22T09:30:45.590Z,11.00
2019-05-22T09:33:16.091Z,13.20
2019-05-22T09:35:46.818Z,12.70
2019-05-22T09:38:17.332Z,12.98
2019-05-22T09:40:48.402Z,10.30
2019-05-22T09:43:18.464Z,15.13
2019-05-22T09:45:49.050Z,9.70
2019-05-22T09:48:21.165Z,13.28
2019-05-22T09:50:51.497Z,11.97
2019-05-22T09:53:22.004Z,13.68
2019-05-22T09:55:52.009Z,13.55
2019-05-22T09:58:22.332Z,11.57
2019-05-22T10:00:52.453Z,15.75
2019-05-22T10:03:23.088Z,12.37
2019-05-22T10:05:53.174Z,13.93
2019-05-22T10:08:23.268Z,13.90
2019-05-22T10:10:53.414Z,12.20
2019-05-22T10:13:23.795Z,12.93
2019-05-22T10:15:53.905Z,12.50
2019-05-22T10:18:24.017Z,13.48
2019-05-22T10:20:54.282Z,13.78
2019-05-22T10:23:24.711Z,10.70
2019-05-22T10:25:54.796Z,13.13
2019-05-22T10:28:25.806Z,11.43
2019-05-22T10:30:57.242Z,13.65
2019-05-22T10:33:27.817Z,11.75
2019-05-22T10:35:58.082Z,10.60
2019-05-22T10:38:28.068Z,11.38
2019-05-22T10:40:59.498Z,11.48
2019-05-22T10:43:30.305Z,9.45
2019-05-22T10:46:00.511Z,10.75
2019-05-22T10:48:30.579Z,11.08
2019-05-22T10:51:00.596Z,9.03
2019-05-22T10:53:34.135Z,13.53
2019-05-22T10:56:03.690Z,14.58
2019-05-22T10:58:34.101Z,9.68
2019-05-22T11:01:04.878Z,10.70
2019-05-22T11:03:35.169Z,10.98
2019-05-22T11:06:07.764Z,10.00
2019-05-22T11:08:38.370Z,15.60
2019-05-22T11:11:09.094Z,12.28
2019-05-22T11:13:39.179Z,15.83
2019-05-22T11:16:10.028Z,10.78
2019-05-22T11:18:40.559Z,15.13
2019-05-22T11:21:12.016Z,10.60
2019-05-22T11:23:51.890Z,15.13
2019-05-22T11:26:14.199Z,10.15
2019-05-22T11:28:44.675Z,10.00
2019-05-22T11:31:15.347Z,16.25
2019-05-22T11:33:46.120Z,13.20
2019-05-22T11:36:21.054Z,13.28
2019-05-22T11:38:51.162Z,11.25
2019-05-22T11:41:21.252Z,11.70
2019-05-22T11:43:51.585Z,14.80
2019-05-22T11:46:21.621Z,10.70
2019-05-22T11:48:51.605Z,13.45
2019-05-22T11:51:22.517Z,16.48
2019-05-22T11:54:08.086Z,12.58
2019-05-22T11:56:24.698Z,12.68
2019-05-22T11:58:54.811Z,10.72
2019-05-22T12:01:25.015Z,16.75
2019-05-22T12:03:55.309Z,18.45
2019-05-22T12:06:25.848Z,13.50
2019-05-22T12:08:56.054Z,15.75
2019-05-22T12:11:27.175Z,17.62
2019-05-22T12:13:57.312Z,14.83
2019-05-22T12:16:28.081Z,14.45
2019-05-22T12:18:59.064Z,17.62
2019-05-22T12:21:29.915Z,17.92
2019-05-22T12:23:59.949Z,12.28
2019-05-22T12:26:30.103Z,15.05
2019-05-22T12:29:00.038Z,15.78
2019-05-22T12:31:30.050Z,11.90
2019-05-22T12:34:00.905Z,14.35
2019-05-22T12:36:31.315Z,16.67
2019-05-22T12:39:02.183Z,13.98
2019-05-22T12:41:32.330Z,15.88
2019-05-22T12:44:02.568Z,14.85
2019-05-22T12:46:34.060Z,14.25
2019-05-22T12:49:08.595Z,20.02
2019-05-22T12:51:36.385Z,13.20
2019-05-22T12:54:07.565Z,19.32
2019-05-22T12:56:37.718Z,19.48
2019-05-22T12:59:08.494Z,15.08
2019-05-22T13:01:38.701Z,15.45
2019-05-22T13:04:09.848Z,15.40
2019-05-22T13:06:40.356Z,14.73
2019-05-22T13:09:10.894Z,16.80
2019-05-22T13:11:42.483Z,18.45
2019-05-22T13:14:14.387Z,17.17
2019-05-22T13:16:48.974Z,17.35
2019-05-22T13:19:18.058Z,15.95
2019-05-22T13:21:52.287Z,18.73
2019-05-22T13:24:23.107Z,16.90
2019-05-22T13:26:54.498Z,11.97
2019-05-22T13:29:27.558Z,14.15
2019-05-22T13:31:57.640Z,15.58
2019-05-22T13:34:28.899Z,12.75
2019-05-22T13:36:59.067Z,18.25
2019-05-22T13:39:30.911Z,20.20
2019-05-22T13:42:00.839Z,16.15
2019-05-22T13:44:32.325Z,17.73
2019-05-22T13:47:02.870Z,15.58
2019-05-22T13:49:34.634Z,16.40
2019-05-22T13:52:04.957Z,15.40
2019-05-22T13:54:35.337Z,16.42
2019-05-22T13:57:07.336Z,17.70
2019-05-22T13:59:37.798Z,18.37
2019-05-22T14:02:08.672Z,12.58
2019-05-22T14:04:39.109Z,16.35
2019-05-22T14:07:09.803Z,19.07
2019-05-22T14:09:40.891Z,22.20
2019-05-22T14:12:12.403Z,18.77
2019-05-22T14:14:43.162Z,19.32
2019-05-22T14:17:13.146Z,18.25
2019-05-22T14:19:43.573Z,15.18
2019-05-22T14:22:13.722Z,15.98
2019-05-22T14:24:43.774Z,17.32
2019-05-22T14:27:14.214Z,14.40
2019-05-22T14:29:44.427Z,16.60
2019-05-22T14:32:15.749Z,16.37
2019-05-22T14:34:45.856Z,19.30
2019-05-22T14:37:16.065Z,19.75
2019-05-22T14:39:46.562Z,15.80
2019-05-22T14:42:16.977Z,15.05
2019-05-22T14:44:47.585Z,13.58
2019-05-22T14:47:18.042Z,15.35
2019-05-22T14:49:49.510Z,11.70
2019-05-22T14:52:20.722Z,12.90
2019-05-22T14:54:50.808Z,12.63
2019-05-22T14:57:21.474Z,16.15
2019-05-22T14:59:51.868Z,15.48
2019-05-22T15:02:23.155Z,14.85
2019-05-22T15:04:53.870Z,16.23
2019-05-22T15:07:23.946Z,15.35
2019-05-22T15:09:54.034Z,15.45
2019-05-22T15:12:24.146Z,10.63
2019-05-22T15:14:54.187Z,19.42
2019-05-22T15:17:32.344Z,12.18
2019-05-22T15:19:56.373Z,15.58
2019-05-22T15:22:27.102Z,11.83
2019-05-22T15:24:57.601Z,12.95
2019-05-22T15:27:28.073Z,13.53
2019-05-22T15:29:58.557Z,12.58
2019-05-22T15:32:28.886Z,15.45
2019-05-22T15:34:59.001Z,17.85
2019-05-22T15:37:29.686Z,15.55
2019-05-22T15:40:00.846Z,13.55
2019-05-22T15:42:39.995Z,13.00
2019-05-22T15:45:25.525Z,17.98
2019-05-22T15:47:57.698Z,16.60
2019-05-22T15:50:31.920Z,14.90
2019-05-22T15:53:11.814Z,14.65
2019-05-22T15:55:42.646Z,12.03
2019-05-22T15:58:15.300Z,15.30
2019-05-22T16:00:47.661Z,17.23
2019-05-22T16:03:20.987Z,19.92
2019-05-22T16:05:52.673Z,19.15
2019-05-22T16:08:23.584Z,15.28
2019-05-22T16:10:58.985Z,19.10
2019-05-22T16:13:29.213Z,14.63
2019-05-22T16:18:32.966Z,17.07
2019-05-22T16:23:37.451Z,13.58
2019-05-22T16:26:09.741Z,14.05
2019-05-22T16:28:40.939Z,14.20
2019-05-22T16:31:12.472Z,9.58
2019-05-22T16:33:44.537Z,14.03
2019-05-22T16:36:15.958Z,14.05
2019-05-22T16:38:48.305Z,14.43
2019-05-22T16:41:18.859Z,15.15
2019-05-22T16:43:50.852Z,10.98
2019-05-22T16:46:22.412Z,10.20
2019-05-22T16:48:53.492Z,12.25
2019-05-22T16:51:24.950Z,15.15
2019-05-22T16:53:57.861Z,16.10
2019-05-22T16:56:29.996Z,11.08
2019-05-22T16:59:02.246Z,13.58
2019-05-22T17:01:33.066Z,17.10
2019-05-22T17:04:04.061Z,15.90
2019-05-22T17:06:35.721Z,14.45
2019-05-22T17:09:09.550Z,13.88
2019-05-22T17:11:40.532Z,12.95
2019-05-22T17:14:13.136Z,14.15
2019-05-22T17:16:44.091Z,12.85
2019-05-22T17:19:26.480Z,13.48
2019-05-22T17:21:48.969Z,13.53
2019-05-22T17:24:20.242Z,16.70
2019-05-22T17:26:53.171Z,15.53
2019-05-22T17:29:23.811Z,13.38
2019-05-22T17:31:53.988Z,12.98
2019-05-22T17:34:37.325Z,13.45
2019-05-22T17:39:42.246Z,12.45
2019-05-22T17:42:18.087Z,16.95
2019-05-22T17:44:50.715Z,12.05
2019-05-22T17:47:23.823Z,13.50
2019-05-22T17:52:23.199Z,12.07
2019-05-22T17:54:53.672Z,12.75
2019-05-22T17:57:24.264Z,12.33
2019-05-22T17:59:55.738Z,9.55
2019-05-22T18:02:28.560Z,10.48
2019-05-22T18:04:58.818Z,12.30
2019-05-22T18:07:29.475Z,11.55
2019-05-22T18:09:59.698Z,10.50
2019-05-22T18:12:30.450Z,14.15
2019-05-22T18:15:01.091Z,16.35
2019-05-22T18:17:32.596Z,10.88
2019-05-22T18:20:04.214Z,7.87
2019-05-22T18:22:34.815Z,5.60
2019-05-22T18:25:07.676Z,9.40
2019-05-22T18:27:39.430Z,7.85
2019-05-22T18:30:10.803Z,8.20
2019-05-22T18:32:42.438Z,6.17
2019-05-22T18:35:14.046Z,9.23
2019-05-22T18:37:44.025Z,8.78
2019-05-22T18:40:14.709Z,8.43
2019-05-22T18:42:47.891Z,9.73
2019-05-22T18:47:48.499Z,12.00
2019-05-22T18:50:20.791Z,9.10
2019-05-22T18:52:53.338Z,14.40
2019-05-22T18:55:30.502Z,6.42
2019-05-22T18:58:07.646Z,7.80
2019-05-22T19:00:37.889Z,6.20
2019-05-22T19:03:08.220Z,8.68
2019-05-22T19:05:38.967Z,8.63
2019-05-22T19:08:09.447Z,6.10
2019-05-22T19:10:44.737Z,6.72
2019-05-22T19:13:16.573Z,7.28
2019-05-22T19:15:47.697Z,6.47
2019-05-22T19:18:20.222Z,8.10
2019-05-22T19:20:50.389Z,4.55
2019-05-22T19:23:23.553Z,6.92
2019-05-22T19:25:53.792Z,4.05
2019-05-22T19:28:42.122Z,4.60
2019-05-22T19:30:58.070Z,5.78
2019-05-22T19:33:34.485Z,7.42
2019-05-22T19:36:08.000Z,5.85
2019-05-22T19:38:42.717Z,4.65
2019-05-22T19:41:35.884Z,5.12
2019-05-22T19:44:12.834Z,6.50
2019-05-22T19:46:57.668Z,4.35
2019-05-22T19:49:34.163Z,6.40
2019-05-22T19:58:01.734Z,7.47
2019-05-22T20:00:36.021Z,10.80
2019-05-22T20:03:09.076Z,9.63
2019-05-22T20:05:43.475Z,8.85
2019-05-22T20:08:24.062Z,10.55
2019-05-22T20:14:02.079Z,9.48
2019-05-22T20:16:36.948Z,8.40
2019-05-22T20:19:11.286Z,11.50
2019-05-22T20:21:50.619Z,8.13
2019-05-22T20:24:31.483Z,5.85
2019-05-22T20:27:16.805Z,8.80
2019-05-22T20:29:48.585Z,8.88
2019-05-22T20:32:24.815Z,11.00
2019-05-22T20:35:00.045Z,8.08
2019-05-22T20:37:33.018Z,8.08
2019-05-22T20:40:12.394Z,8.33
2019-05-22T20:42:47.058Z,9.63
2019-05-22T20:45:22.168Z,9.60
2019-05-22T20:48:06.066Z,11.38
2019-05-22T20:50:40.299Z,12.10
2019-05-22T20:53:11.497Z,18.15
2019-05-22T20:55:45.752Z,15.18
2019-05-22T21:01:29.433Z,21.60
2019-05-22T21:04:02.606Z,17.92
2019-05-22T21:06:41.468Z,16.48
2019-05-22T21:09:27.050Z,20.48
2019-05-22T21:12:01.310Z,15.80
2019-05-22T21:14:39.213Z,21.27
2019-05-22T21:17:16.351Z,19.45
2019-05-22T21:19:54.962Z,17.12
2019-05-22T21:22:33.063Z,21.37
2019-05-22T21:25:13.327Z,19.42
2019-05-22T21:27:47.148Z,18.32
2019-05-22T21:30:26.686Z,21.17
2019-05-22T21:33:04.898Z,20.27
2019-05-22T21:35:47.090Z,22.30
2019-05-22T21:38:19.990Z,20.70
2019-05-22T21:40:56.789Z,23.45
2019-05-22T21:43:32.206Z,25.12
2019-05-22T21:46:09.904Z,30.00
2019-05-22T21:48:47.882Z,22.95
2019-05-22T21:51:24.926Z,24.07
2019-05-22T21:53:58.186Z,20.43
2019-05-22T21:56:31.480Z,23.57
2019-05-22T22:01:52.982Z,20.25
2019-05-22T22:04:28.455Z,17.23
2019-05-22T22:07:02.677Z,21.33
2019-05-22T22:09:50.880Z,18.90
2019-05-22T22:12:31.905Z,22.67
2019-05-22T22:15:08.331Z,24.55
2019-05-22T22:17:40.519Z,20.60
2019-05-22T22:20:14.038Z,21.25
2019-05-22T22:22:50.123Z,22.27
2019-05-22T22:25:28.334Z,24.05
2019-05-22T22:28:02.948Z,23.40
2019-05-22T22:30:54.981Z,28.05
2019-05-22T22:33:31.183Z,23.18
2019-05-22T22:36:06.100Z,29.07
2019-05-22T22:38:48.207Z,30.43
2019-05-22T22:41:18.150Z,25.40
2019-05-22T22:43:52.389Z,28.07
2019-05-22T22:46:40.679Z,27.07
2019-05-22T22:49:33.221Z,27.00
2019-05-22T22:52:20.601Z,28.45
2019-05-22T22:54:57.902Z,25.97
2019-05-22T23:00:49.366Z,31.90
2019-05-22T23:06:07.931Z,27.87
2019-05-22T23:08:49.613Z,25.55
2019-05-22T23:11:44.676Z,26.12
2019-05-22T23:14:29.187Z,25.82
2019-05-22T23:17:24.078Z,25.37
2019-05-22T23:26:13.387Z,26.20
2019-05-22T23:28:57.398Z,24.20
2019-05-22T23:31:30.854Z,24.07
2019-05-22T23:34:09.447Z,27.90
2019-05-22T23:36:46.934Z,26.60
2019-05-22T23:42:22.017Z,24.55
2019-05-22T23:45:02.587Z,26.95
2019-05-22T23:48:25.950Z,25.43
2019-05-22T23:50:45.690Z,23.07
2019-05-22T23:53:22.363Z,27.60
2019-05-22T23:55:59.386Z,27.98
2019-05-22T23:58:49.782Z,27.73
